createdAt,value
2022-08-26T00:01:50.514Z,101538.19
2022-08-26T00:05:12.222Z,101534.53
2022-08-26T00:08:35.435Z,101538.81
2022-08-26T00:12:00.282Z,101543.91
2022-08-26T00:15:24.599Z,101542.06
2022-08-26T00:18:46.331Z,101512.28
2022-08-26T00:22:08.321Z,101538.56
2022-08-26T00:25:31.002Z,101524.97
2022-08-26T00:28:52.823Z,101549.81
2022-08-26T00:32:16.740Z,101538.28
2022-08-26T00:35:39.660Z,101534.03
2022-08-26T00:39:08.299Z,101544.59
2022-08-26T00:42:30.642Z,101550.03
2022-08-26T00:45:56.659Z,101547.34
2022-08-26T00:49:23.709Z,101542.91
2022-08-26T00:52:47.020Z,101544.75
2022-08-26T00:56:17.389Z,101542.78
2022-08-26T00:59:40.117Z,101537.44
2022-08-26T01:03:05.473Z,101520.50
2022-08-26T01:06:31.594Z,101532.16
2022-08-26T01:09:54.331Z,101533.84
2022-08-26T01:13:16.365Z,101540.69
2022-08-26T01:16:44.218Z,101537.16
2022-08-26T01:20:19.600Z,101521.59
2022-08-26T01:23:46.393Z,101528.06
2022-08-26T01:27:11.025Z,101488.13
2022-08-26T01:30:34.411Z,101515.59
2022-08-26T01:34:02.890Z,101519.66
2022-08-26T01:37:28.469Z,101506.78
2022-08-26T01:40:52.392Z,101509.44
2022-08-26T01:44:19.778Z,101503.53
2022-08-26T01:47:44.119Z,101509.00
2022-08-26T01:51:10.777Z,101504.72
2022-08-26T01:54:33.681Z,101499.63
2022-08-26T01:57:58.648Z,101482.63
2022-08-26T02:01:21.778Z,101504.13
2022-08-26T02:04:51.182Z,101495.38
2022-08-26T02:08:14.237Z,101486.69
2022-08-26T02:11:45.255Z,101489.13
2022-08-26T02:15:12.352Z,101494.00
2022-08-26T02:18:38.488Z,101470.84
2022-08-26T02:22:02.748Z,101501.22
2022-08-26T02:25:31.057Z,101508.03
2022-08-26T02:28:57.036Z,101490.78
2022-08-26T02:32:21.008Z,101469.25
2022-08-26T02:35:43.479Z,101474.94
2022-08-26T02:39:06.491Z,101486.06
2022-08-26T02:42:28.669Z,101485.16
2022-08-26T02:45:50.804Z,101478.06
2022-08-26T02:49:14.136Z,101474.66
2022-08-26T02:52:36.007Z,101475.97
2022-08-26T02:55:59.785Z,101477.94
2022-08-26T02:59:24.385Z,101464.38
2022-08-26T03:02:46.710Z,101466.09
2022-08-26T03:06:10.317Z,101450.69
2022-08-26T03:09:33.325Z,101430.59
2022-08-26T03:12:55.537Z,101454.63
2022-08-26T03:16:18.857Z,101446.09
2022-08-26T03:19:40.951Z,101448.06
2022-08-26T03:23:04.816Z,101453.41
2022-08-26T03:26:27.831Z,101447.28
2022-08-26T03:30:07.415Z,101437.84
2022-08-26T03:33:30.049Z,101426.78
2022-08-26T03:36:52.812Z,101449.16
2022-08-26T03:40:16.330Z,101450.00
2022-08-26T03:43:42.566Z,101444.06
2022-08-26T03:47:07.817Z,101417.59
2022-08-26T03:50:31.236Z,101454.09
2022-08-26T03:53:57.097Z,101449.50
2022-08-26T03:57:20.975Z,101450.06
2022-08-26T04:00:44.401Z,101443.78
2022-08-26T04:04:08.158Z,101454.94
2022-08-26T04:07:30.197Z,101460.13
2022-08-26T04:10:54.313Z,101457.47
2022-08-26T04:14:21.167Z,101447.03
2022-08-26T04:17:43.329Z,101450.34
2022-08-26T04:21:07.838Z,101456.38
2022-08-26T04:24:30.235Z,101447.63
2022-08-26T04:27:52.326Z,101454.00
2022-08-26T04:31:17.857Z,101455.53
2022-08-26T04:34:41.386Z,101457.97
2022-08-26T04:38:03.535Z,101454.41
2022-08-26T04:41:28.035Z,101448.19
2022-08-26T04:44:53.676Z,101464.25
2022-08-26T04:48:16.993Z,101463.75
2022-08-26T04:51:40.361Z,101466.97
2022-08-26T04:55:02.395Z,101467.41
2022-08-26T04:58:25.938Z,101465.13
2022-08-26T05:01:49.913Z,101465.53
2022-08-26T05:05:14.275Z,101468.66
2022-08-26T05:08:36.678Z,101455.44
2022-08-26T05:11:58.609Z,101473.28
2022-08-26T05:15:20.398Z,101473.22
2022-08-26T05:18:44.628Z,101485.41
2022-08-26T05:22:07.875Z,101483.31
2022-08-26T05:25:30.435Z,101465.66
2022-08-26T05:28:54.654Z,101470.91
2022-08-26T05:32:17.108Z,101476.88
2022-08-26T05:35:39.526Z,101464.38
2022-08-26T05:39:03.740Z,101471.47
2022-08-26T05:42:25.649Z,101480.56
2022-08-26T05:45:50.466Z,101474.06
2022-08-26T05:49:13.328Z,101456.16
2022-08-26T05:52:35.783Z,101481.72
2022-08-26T05:55:59.490Z,101473.22
2022-08-26T05:59:24.458Z,101477.06
2022-08-26T06:02:48.450Z,101478.69
2022-08-26T06:06:12.917Z,101477.16
2022-08-26T06:09:38.517Z,101471.53
2022-08-26T06:13:11.935Z,101481.09
2022-08-26T06:16:36.439Z,101475.53
2022-08-26T06:19:58.546Z,101472.16
2022-08-26T06:23:37.738Z,101478.69
2022-08-26T06:27:04.468Z,101485.09
2022-08-26T06:30:27.989Z,101476.84
2022-08-26T06:33:50.647Z,101476.63
2022-08-26T06:37:12.671Z,101471.06
2022-08-26T06:40:36.557Z,101469.13
2022-08-26T06:43:58.445Z,101471.13
2022-08-26T06:47:21.756Z,101440.38
2022-08-26T06:50:44.946Z,101457.28
2022-08-26T06:54:08.248Z,101473.75
2022-08-26T06:57:32.965Z,101473.16
2022-08-26T07:01:01.988Z,101471.28
2022-08-26T07:04:28.080Z,101477.28
2022-08-26T07:07:50.020Z,101475.06
2022-08-26T07:11:14.400Z,101473.81
2022-08-26T07:14:36.461Z,101470.75
2022-08-26T07:17:58.566Z,101477.44
2022-08-26T07:21:22.669Z,101475.97
2022-08-26T07:24:45.819Z,101485.19
2022-08-26T07:28:08.474Z,101464.13
2022-08-26T07:31:39.626Z,101484.69
2022-08-26T07:35:06.315Z,101475.06
2022-08-26T07:38:29.524Z,101483.84
2022-08-26T07:41:56.166Z,101479.72
2022-08-26T07:45:19.940Z,101489.47
2022-08-26T07:48:46.075Z,101478.44
2022-08-26T07:52:09.382Z,101465.81
2022-08-26T07:55:34.684Z,101470.88
2022-08-26T07:58:59.453Z,101471.53
2022-08-26T08:02:21.541Z,101469.91
2022-08-26T08:05:43.837Z,101474.16
2022-08-26T08:09:08.631Z,101474.91
2022-08-26T08:12:32.265Z,101470.09
2022-08-26T08:15:55.992Z,101469.31
2022-08-26T08:19:18.218Z,101467.38
2022-08-26T08:22:40.712Z,101472.84
2022-08-26T08:26:03.731Z,101472.25
2022-08-26T08:29:28.260Z,101465.66
2022-08-26T08:32:50.396Z,101462.72
2022-08-26T08:36:18.489Z,101468.28
2022-08-26T08:39:42.497Z,101473.34
2022-08-26T08:43:08.428Z,101465.38
2022-08-26T08:46:32.976Z,101455.66
2022-08-26T08:49:57.853Z,101460.28
2022-08-26T08:53:24.885Z,101458.28
2022-08-26T08:56:53.976Z,101436.56
2022-08-26T09:00:22.241Z,101447.00
2022-08-26T09:04:05.131Z,101448.19
2022-08-26T09:07:29.816Z,101443.28
2022-08-26T09:10:56.428Z,101441.00
2022-08-26T09:14:18.867Z,101443.69
2022-08-26T09:17:49.630Z,101427.00
2022-08-26T09:21:15.424Z,101433.16
2022-08-26T09:24:48.554Z,101433.78
2022-08-26T09:28:18.774Z,101422.75
2022-08-26T09:31:41.583Z,101426.16
2022-08-26T09:35:06.364Z,101423.59
2022-08-26T09:38:35.345Z,101419.13
2022-08-26T09:42:07.020Z,101398.09
2022-08-26T09:45:30.049Z,101408.34
2022-08-26T09:48:53.171Z,101410.88
2022-08-26T09:52:22.129Z,101417.59
2022-08-26T09:55:48.040Z,101409.13
2022-08-26T09:59:12.469Z,101409.59
2022-08-26T10:02:47.848Z,101405.75
2022-08-26T10:06:26.844Z,101402.00
2022-08-26T10:09:49.749Z,101382.50
2022-08-26T10:13:19.029Z,101402.50
2022-08-26T10:16:50.254Z,101378.50
2022-08-26T10:20:23.152Z,101387.38
2022-08-26T10:23:50.861Z,101391.44
2022-08-26T10:27:23.430Z,101398.00
2022-08-26T10:30:52.386Z,101385.50
2022-08-26T10:34:15.335Z,101389.00
2022-08-26T10:37:42.248Z,101382.19
2022-08-26T10:41:10.556Z,101376.91
2022-08-26T10:44:34.480Z,101375.34
2022-08-26T10:48:04.240Z,101369.44
2022-08-26T10:51:29.217Z,101368.56
2022-08-26T10:54:59.844Z,101371.66
2022-08-26T10:58:39.918Z,101374.91
2022-08-26T11:02:09.826Z,101376.13
2022-08-26T11:05:34.384Z,101365.88
2022-08-26T11:08:58.372Z,101360.72
2022-08-26T11:13:04.831Z,101368.94
2022-08-26T11:16:42.985Z,101370.00
2022-08-26T11:20:09.241Z,101345.88
2022-08-26T11:23:50.823Z,101366.34
2022-08-26T11:28:04.503Z,101352.94
2022-08-26T11:31:55.781Z,101359.13
2022-08-26T11:35:52.290Z,101361.09
2022-08-26T11:39:24.408Z,101344.88
2022-08-26T11:42:50.750Z,101321.41
2022-08-26T11:46:14.197Z,101348.63
2022-08-26T11:49:37.826Z,101353.31
2022-08-26T11:53:06.153Z,101342.13
2022-08-26T11:56:33.295Z,101346.09
2022-08-26T11:59:56.744Z,101343.16
2022-08-26T12:03:23.035Z,101341.59
2022-08-26T12:06:50.029Z,101332.47
2022-08-26T12:10:26.068Z,101327.28
2022-08-26T12:14:01.490Z,101325.13
2022-08-26T12:17:29.296Z,101317.00
2022-08-26T12:20:54.438Z,101314.88
2022-08-26T12:24:19.723Z,101317.94
2022-08-26T12:27:43.519Z,101313.06
2022-08-26T12:31:07.918Z,101295.75
2022-08-26T12:34:30.094Z,101295.47
2022-08-26T12:37:54.913Z,101301.44
2022-08-26T12:41:42.978Z,101303.84
2022-08-26T12:45:07.670Z,101310.81
2022-08-26T12:48:33.367Z,101305.31
2022-08-26T12:51:55.300Z,101307.72
2022-08-26T12:55:22.629Z,101294.66
2022-08-26T12:58:45.039Z,101294.53
2022-08-26T13:02:07.399Z,101288.03
2022-08-26T13:05:35.321Z,101292.09
2022-08-26T13:08:59.698Z,101292.53
2022-08-26T13:12:27.333Z,101292.09
2022-08-26T13:15:49.541Z,101295.88
2022-08-26T13:19:19.462Z,101294.88
2022-08-26T13:22:42.997Z,101281.88
2022-08-26T13:26:05.325Z,101284.28
2022-08-26T13:29:27.608Z,101285.44
2022-08-26T13:33:01.169Z,101274.06
2022-08-26T13:36:24.199Z,101275.50
2022-08-26T13:39:48.450Z,101270.56
2022-08-26T13:43:10.635Z,101266.22
2022-08-26T13:46:33.080Z,101261.59
2022-08-26T13:49:55.414Z,101257.81
2022-08-26T13:53:18.925Z,101269.91
2022-08-26T13:56:44.546Z,101258.78
2022-08-26T14:00:08.057Z,101247.44
2022-08-26T14:03:33.049Z,101252.47
2022-08-26T14:06:54.929Z,101261.22
2022-08-26T14:10:16.866Z,101260.91
2022-08-26T14:13:40.607Z,101251.78
2022-08-26T14:17:02.960Z,101255.44
2022-08-26T14:20:28.136Z,101249.53
2022-08-26T14:23:50.497Z,101243.78
2022-08-26T14:27:12.658Z,101225.78
2022-08-26T14:30:36.059Z,101221.72
2022-08-26T14:33:59.383Z,101231.00
2022-08-26T14:37:21.426Z,101226.38
2022-08-26T14:40:45.083Z,101227.78
2022-08-26T14:44:09.823Z,101230.56
2022-08-26T14:47:33.564Z,101215.94
2022-08-26T14:50:55.769Z,101225.38
2022-08-26T14:54:20.036Z,101212.44
2022-08-26T14:57:41.877Z,101217.94
2022-08-26T15:01:04.370Z,101212.97
2022-08-26T15:04:28.603Z,101202.03
2022-08-26T15:07:50.789Z,101195.44
2022-08-26T15:11:12.792Z,101213.56
2022-08-26T15:14:34.685Z,101203.44
2022-08-26T15:17:56.635Z,101205.97
2022-08-26T15:21:20.746Z,101203.28
2022-08-26T15:24:42.875Z,101207.66
2022-08-26T15:28:05.145Z,101201.19
2022-08-26T15:31:31.597Z,101196.84
2022-08-26T15:34:53.949Z,101198.06
2022-08-26T15:38:18.313Z,101176.59
2022-08-26T15:41:40.795Z,101190.34
2022-08-26T15:45:03.051Z,101185.56
2022-08-26T15:48:25.726Z,101184.25
2022-08-26T15:51:50.562Z,101189.75
2022-08-26T15:55:13.797Z,101183.84
2022-08-26T15:58:36.246Z,101174.00
2022-08-26T16:01:58.658Z,101173.84
2022-08-26T16:05:20.766Z,101170.47
2022-08-26T16:08:42.868Z,101168.78
2022-08-26T16:12:06.674Z,101167.78
2022-08-26T16:15:28.843Z,101163.31
2022-08-26T16:18:50.968Z,101156.75
2022-08-26T16:22:13.043Z,101162.00
2022-08-26T16:25:35.521Z,101157.50
2022-08-26T16:28:58.887Z,101159.03
2022-08-26T16:32:20.804Z,101160.53
2022-08-26T16:35:43.867Z,101155.19
2022-08-26T16:39:07.601Z,101159.09
2022-08-26T16:42:29.674Z,101155.44
2022-08-26T16:45:53.024Z,101162.88
2022-08-26T16:49:15.482Z,101161.03
2022-08-26T16:52:38.566Z,101164.81
2022-08-26T16:56:00.856Z,101153.97
2022-08-26T16:59:23.116Z,101161.41
2022-08-26T17:02:46.635Z,101151.09
2022-08-26T17:06:09.444Z,101143.66
2022-08-26T17:09:31.701Z,101146.84
2022-08-26T17:12:53.842Z,101145.88
2022-08-26T17:16:17.858Z,101134.41
2022-08-26T17:19:47.231Z,101137.00
2022-08-26T17:23:09.745Z,101137.94
2022-08-26T17:26:34.974Z,101140.41
2022-08-26T17:29:57.607Z,101143.13
2022-08-26T17:33:22.120Z,101126.91
2022-08-26T17:36:48.712Z,101141.91
2022-08-26T17:40:15.552Z,101145.19
2022-08-26T17:43:38.484Z,101146.78
2022-08-26T17:47:00.403Z,101148.50
2022-08-26T17:50:22.741Z,101135.25
2022-08-26T17:53:47.471Z,101146.88
2022-08-26T17:57:10.809Z,101150.28
2022-08-26T18:00:32.680Z,101111.94
2022-08-26T18:04:00.169Z,101145.50
2022-08-26T18:07:22.930Z,101146.81
2022-08-26T18:10:46.369Z,101142.50
2022-08-26T18:14:08.613Z,101145.66
2022-08-26T18:17:30.674Z,101144.56
2022-08-26T18:21:01.567Z,101142.84
2022-08-26T18:24:24.625Z,101154.69
2022-08-26T18:27:48.254Z,101148.19
2022-08-26T18:31:12.630Z,101152.41
2022-08-26T18:34:36.022Z,101133.69
2022-08-26T18:37:58.331Z,101141.78
2022-08-26T18:41:36.066Z,101147.56
2022-08-26T18:44:59.783Z,101154.91
2022-08-26T18:48:23.219Z,101150.19
2022-08-26T18:51:45.768Z,101145.81
2022-08-26T18:55:08.804Z,101125.16
2022-08-26T18:58:30.685Z,101146.53
2022-08-26T19:01:53.976Z,101150.63
2022-08-26T19:05:15.755Z,101148.72
2022-08-26T19:08:37.542Z,101147.06
2022-08-26T19:12:07.055Z,101137.13
2022-08-26T19:15:29.286Z,101134.81
2022-08-26T19:18:53.650Z,101137.81
2022-08-26T19:22:16.127Z,101147.69
2022-08-26T19:25:41.981Z,101131.25
2022-08-26T19:29:04.365Z,101147.66
2022-08-26T19:32:26.827Z,101148.00
2022-08-26T19:35:50.269Z,101137.69
2022-08-26T19:39:13.414Z,101149.63
2022-08-26T19:42:35.662Z,101149.22
2022-08-26T19:45:57.753Z,101153.81
2022-08-26T19:49:19.639Z,101149.88
2022-08-26T19:52:46.994Z,101134.16
2022-08-26T19:56:09.071Z,101145.25
2022-08-26T19:59:33.178Z,101139.38
2022-08-26T20:02:55.663Z,101147.72
2022-08-26T20:06:18.303Z,101154.53
2022-08-26T20:09:42.077Z,101158.00
2022-08-26T20:13:04.418Z,101158.22
2022-08-26T20:16:26.486Z,101147.94
2022-08-26T20:20:05.797Z,101157.72
2022-08-26T20:23:37.203Z,101141.09
2022-08-26T20:27:05.503Z,101153.78
2022-08-26T20:30:29.330Z,101149.88
2022-08-26T20:33:51.786Z,101135.63
2022-08-26T20:37:13.760Z,101145.66
2022-08-26T20:40:35.800Z,101149.34
2022-08-26T20:43:59.791Z,101130.97
2022-08-26T20:47:21.616Z,101143.66
2022-08-26T20:50:43.526Z,101146.50
2022-08-26T20:54:06.498Z,101133.16
2022-08-26T20:57:28.337Z,101144.06
2022-08-26T21:00:52.497Z,101140.19
2022-08-26T21:04:17.885Z,101145.97
2022-08-26T21:07:39.896Z,101140.06
2022-08-26T21:11:02.619Z,101136.16
2022-08-26T21:14:26.290Z,101140.47
2022-08-26T21:17:49.866Z,101132.44
2022-08-26T21:21:12.016Z,101147.03
2022-08-26T21:24:34.242Z,101142.16
2022-08-26T21:27:56.754Z,101136.66
2022-08-26T21:31:21.268Z,101158.47
2022-08-26T21:34:44.643Z,101163.03
2022-08-26T21:38:06.633Z,101156.25
2022-08-26T21:41:29.236Z,101154.66
2022-08-26T21:44:52.913Z,101162.72
2022-08-26T21:48:15.198Z,101167.16
2022-08-26T21:51:40.193Z,101155.94
2022-08-26T21:55:08.914Z,101161.22
2022-08-26T21:58:31.484Z,101152.75
2022-08-26T22:01:54.666Z,101157.06
2022-08-26T22:05:16.859Z,101162.69
2022-08-26T22:08:40.273Z,101161.09
2022-08-26T22:12:02.291Z,101147.31
2022-08-26T22:15:26.047Z,101135.31
2022-08-26T22:18:47.971Z,101136.38
2022-08-26T22:22:09.840Z,101142.22
2022-08-26T22:25:33.214Z,101134.81
2022-08-26T22:28:59.138Z,101138.94
2022-08-26T22:32:21.542Z,101139.97
2022-08-26T22:35:45.397Z,101140.09
2022-08-26T22:39:07.729Z,101142.00
2022-08-26T22:42:34.596Z,101142.00
2022-08-26T22:45:57.644Z,101136.91
2022-08-26T22:49:19.839Z,101129.19
2022-08-26T22:52:42.237Z,101126.63
2022-08-26T22:56:05.303Z,101118.16
2022-08-26T22:59:28.979Z,101121.75
2022-08-26T23:02:50.883Z,101127.91
2022-08-26T23:06:13.001Z,101120.56
2022-08-26T23:09:35.690Z,101117.28
2022-08-26T23:12:57.789Z,101121.50
2022-08-26T23:16:21.459Z,101135.47
2022-08-26T23:19:43.868Z,101125.19
2022-08-26T23:23:06.434Z,101118.53
2022-08-26T23:26:28.774Z,101100.63
2022-08-26T23:29:51.382Z,101105.00
2022-08-26T23:33:14.842Z,101106.66
2022-08-26T23:36:36.277Z,101102.44
2022-08-26T23:40:00.513Z,101105.28
2022-08-26T23:43:23.498Z,101104.53
2022-08-26T23:46:45.463Z,101094.06
2022-08-26T23:50:10.949Z,101072.78
2022-08-26T23:53:32.152Z,101081.66
2022-08-26T23:56:54.080Z,101089.94
